createdAt,value
2018-02-12T00:00:13.681Z,8.78
2018-02-12T00:01:14.149Z,8.77
2018-02-12T00:02:14.618Z,8.76
2018-02-12T00:03:15.136Z,8.76
2018-02-12T00:04:15.552Z,8.75
2018-02-12T00:05:16.019Z,8.74
2018-02-12T00:06:16.487Z,8.75
2018-02-12T00:07:16.956Z,8.73
2018-02-12T00:08:17.419Z,8.70
2018-02-12T00:09:17.891Z,8.69
2018-02-12T00:10:18.358Z,8.70
2018-02-12T00:11:18.824Z,8.70
2018-02-12T00:12:19.292Z,8.72
2018-02-12T00:13:19.810Z,8.69
2018-02-12T00:14:20.230Z,8.69
2018-02-12T00:15:20.693Z,8.69
2018-02-12T00:16:21.163Z,8.70
2018-02-12T00:17:21.629Z,8.68
2018-02-12T00:19:22.561Z,8.66
2018-02-12T00:20:23.032Z,8.66
2018-02-12T00:21:23.498Z,8.64
2018-02-12T00:22:23.969Z,8.61
2018-02-12T00:23:36.373Z,8.60
2018-02-12T00:24:24.903Z,8.60
2018-02-12T00:25:25.368Z,8.60
2018-02-12T00:26:25.831Z,8.58
2018-02-12T00:27:26.304Z,8.57
2018-02-12T00:28:38.406Z,8.56
2018-02-12T00:30:27.702Z,8.54
2018-02-12T00:31:28.177Z,8.55
2018-02-12T00:32:28.642Z,8.52
2018-02-12T00:33:29.108Z,8.53
2018-02-12T00:34:29.574Z,8.52
2018-02-12T00:35:30.043Z,8.50
2018-02-12T00:36:30.511Z,8.49
2018-02-12T00:37:30.972Z,8.47
2018-02-12T00:38:31.445Z,8.46
2018-02-12T00:40:32.379Z,8.45
2018-02-12T00:41:32.845Z,8.43
2018-02-12T00:43:45.418Z,8.44
2018-02-12T00:44:34.248Z,8.43
2018-02-12T00:45:34.714Z,8.42
2018-02-12T00:46:35.181Z,8.40
2018-02-12T00:47:35.649Z,8.38
2018-02-12T00:48:36.112Z,8.40
2018-02-12T00:49:36.583Z,8.37
2018-02-12T00:50:37.050Z,8.38
2018-02-12T00:51:37.517Z,8.39
2018-02-12T00:52:37.987Z,8.38
2018-02-12T00:54:38.920Z,8.38
2018-02-12T00:55:39.388Z,8.36
2018-02-12T00:57:40.321Z,8.34
2018-02-12T00:58:40.788Z,8.33
2018-02-12T00:59:41.251Z,8.33
2018-02-12T01:00:41.723Z,8.35
2018-02-12T01:01:42.190Z,8.34
2018-02-12T01:02:42.656Z,8.32
2018-02-12T01:03:43.175Z,8.32
2018-02-12T01:04:43.591Z,8.32
2018-02-12T01:05:44.058Z,8.31
2018-02-12T01:06:44.524Z,8.30
2018-02-12T01:07:44.992Z,8.30
2018-02-12T01:09:45.925Z,8.30
2018-02-12T01:10:46.387Z,8.30
2018-02-12T01:11:46.860Z,8.28
2018-02-12T01:12:47.328Z,8.28
2018-02-12T01:13:47.845Z,8.28
2018-02-12T01:14:48.261Z,8.29
2018-02-12T01:15:48.728Z,8.30
2018-02-12T01:16:49.196Z,8.30
2018-02-12T01:17:49.659Z,8.29
2018-02-12T01:19:50.596Z,8.27
2018-02-12T01:20:51.064Z,8.26
2018-02-12T01:21:51.525Z,8.25
2018-02-12T01:22:51.996Z,8.26
2018-02-12T01:23:52.465Z,8.27
2018-02-12T01:24:52.931Z,8.26
2018-02-12T01:25:53.399Z,8.27
2018-02-12T01:26:53.866Z,8.27
2018-02-12T01:27:54.331Z,8.27
2018-02-12T01:28:54.794Z,8.26
2018-02-12T01:29:55.266Z,8.26
2018-02-12T01:30:55.734Z,8.26
2018-02-12T01:31:56.201Z,8.24
2018-02-12T01:32:56.667Z,8.23
2018-02-12T01:33:57.133Z,8.22
2018-02-12T01:34:57.601Z,8.22
2018-02-12T01:36:58.536Z,8.21
2018-02-12T01:37:59.001Z,8.21
2018-02-12T01:38:59.521Z,8.21
2018-02-12T01:39:59.931Z,8.21
2018-02-12T01:42:00.869Z,8.22
2018-02-12T01:43:01.335Z,8.21
2018-02-12T01:44:01.800Z,8.21
2018-02-12T01:45:02.271Z,8.20
2018-02-12T01:46:02.737Z,8.19
2018-02-12T01:47:03.204Z,8.18
2018-02-12T01:48:03.673Z,8.17
2018-02-12T01:49:04.139Z,8.17
2018-02-12T01:50:04.607Z,8.15
2018-02-12T01:51:05.068Z,8.16
2018-02-12T01:52:05.537Z,8.15
2018-02-12T01:53:06.209Z,8.16
2018-02-12T01:54:06.522Z,8.14
2018-02-12T01:55:06.938Z,8.14
2018-02-12T01:56:07.407Z,8.13
2018-02-12T01:57:07.876Z,8.13
2018-02-12T01:58:08.341Z,8.13
2018-02-12T02:00:09.273Z,8.13
2018-02-12T02:01:09.742Z,8.13
2018-02-12T02:02:10.203Z,8.12
2018-02-12T02:05:11.609Z,8.12
2018-02-12T02:06:12.078Z,8.11
2018-02-12T02:07:12.542Z,8.08
2018-02-12T02:08:13.210Z,8.06
2018-02-12T02:09:13.475Z,8.05
2018-02-12T02:11:14.409Z,8.03
2018-02-12T02:12:14.877Z,8.03
2018-02-12T02:13:15.338Z,8.01
2018-02-12T02:14:15.860Z,8.01
2018-02-12T02:15:16.277Z,8.02
2018-02-12T02:16:16.742Z,7.99
2018-02-12T02:17:17.411Z,7.99
2018-02-12T02:18:17.676Z,8.01
2018-02-12T02:19:18.146Z,8.00
2018-02-12T02:20:18.605Z,7.97
2018-02-12T02:21:19.076Z,7.97
2018-02-12T02:22:19.543Z,7.98
2018-02-12T02:23:20.009Z,7.97
2018-02-12T02:24:20.523Z,7.97
2018-02-12T02:26:21.409Z,7.95
2018-02-12T02:27:21.877Z,7.95
2018-02-12T02:28:22.348Z,7.96
2018-02-12T02:29:22.812Z,7.94
2018-02-12T02:30:23.276Z,7.92
2018-02-12T02:31:23.738Z,7.94
2018-02-12T02:32:24.211Z,7.92
2018-02-12T02:33:24.678Z,7.89
2018-02-12T02:34:25.193Z,7.88
2018-02-12T02:35:25.605Z,7.88
2018-02-12T02:36:26.077Z,7.88
2018-02-12T02:37:26.543Z,7.87
2018-02-12T02:38:27.010Z,7.87
2018-02-12T02:39:27.533Z,7.88
2018-02-12T02:40:27.943Z,7.87
2018-02-12T02:41:28.410Z,7.85
2018-02-12T02:42:28.873Z,7.87
2018-02-12T02:43:29.342Z,7.86
2018-02-12T02:44:29.859Z,7.84
2018-02-12T02:45:30.275Z,7.82
2018-02-12T02:46:30.737Z,7.82
2018-02-12T02:47:31.208Z,7.81
2018-02-12T02:48:31.676Z,7.79
2018-02-12T02:50:44.496Z,7.81
2018-02-12T02:51:33.076Z,7.79
2018-02-12T02:52:33.541Z,7.78
2018-02-12T02:53:34.005Z,7.77
2018-02-12T02:54:34.474Z,7.77
2018-02-12T02:55:34.940Z,7.77
2018-02-12T02:56:35.413Z,7.76
2018-02-12T02:57:35.875Z,7.74
2018-02-12T02:58:36.340Z,7.76
2018-02-12T02:59:36.806Z,7.73
2018-02-12T03:00:37.323Z,7.73
2018-02-12T03:01:37.740Z,7.72
2018-02-12T03:02:38.208Z,7.70
2018-02-12T03:04:39.134Z,7.68
2018-02-12T03:05:39.607Z,7.68
2018-02-12T03:07:40.538Z,7.68
2018-02-12T03:08:41.005Z,7.68
2018-02-12T03:09:41.473Z,7.64
2018-02-12T03:10:41.988Z,7.63
2018-02-12T03:11:42.402Z,7.61
2018-02-12T03:12:42.872Z,7.62
2018-02-12T03:14:43.804Z,7.61
2018-02-12T03:15:44.264Z,7.63
2018-02-12T03:16:44.939Z,7.59
2018-02-12T03:18:45.676Z,7.57
2018-02-12T03:19:46.133Z,7.56
2018-02-12T03:20:46.602Z,7.58
2018-02-12T03:21:47.067Z,7.56
2018-02-12T03:22:47.531Z,7.53
2018-02-12T03:23:47.999Z,7.52
2018-02-12T03:24:48.465Z,7.51
2018-02-12T03:25:48.982Z,7.48
2018-02-12T03:26:49.392Z,7.48
2018-02-12T03:27:49.862Z,7.48
2018-02-12T03:28:50.330Z,7.47
2018-02-12T03:29:50.797Z,7.46
2018-02-12T03:32:52.194Z,7.41
2018-02-12T03:33:52.656Z,7.42
2018-02-12T03:35:53.595Z,7.40
2018-02-12T03:36:54.059Z,7.38
2018-02-12T03:37:54.519Z,7.38
2018-02-12T03:38:54.991Z,7.36
2018-02-12T03:39:55.456Z,7.35
2018-02-12T03:40:55.972Z,7.36
2018-02-12T03:41:56.387Z,7.36
2018-02-12T03:42:56.856Z,7.38
2018-02-12T03:43:57.322Z,7.36
2018-02-12T03:44:57.782Z,7.36
2018-02-12T03:45:58.253Z,7.38
2018-02-12T03:46:58.719Z,7.35
2018-02-12T03:47:59.185Z,7.33
2018-02-12T03:48:59.647Z,7.31
2018-02-12T03:50:00.117Z,7.31
2018-02-12T03:51:00.631Z,7.30
2018-02-12T03:52:01.048Z,7.28
2018-02-12T03:53:01.514Z,7.29
2018-02-12T03:55:02.445Z,7.27
2018-02-12T03:56:02.908Z,7.26
2018-02-12T03:57:03.378Z,7.26
2018-02-12T03:58:04.045Z,7.27
2018-02-12T03:59:04.309Z,7.25
2018-02-12T04:00:04.771Z,7.24
2018-02-12T04:01:16.572Z,7.22
2018-02-12T04:02:05.712Z,7.21
2018-02-12T04:04:06.640Z,7.19
2018-02-12T04:05:07.104Z,7.19
2018-02-12T04:06:07.573Z,7.19
2018-02-12T04:07:08.032Z,7.18
2018-02-12T04:08:08.506Z,7.17
2018-02-12T04:09:08.968Z,7.17
2018-02-12T04:10:09.436Z,7.17
2018-02-12T04:12:10.366Z,7.14
2018-02-12T04:13:10.833Z,7.16
2018-02-12T04:16:12.229Z,7.12
2018-02-12T04:17:12.694Z,7.10
2018-02-12T04:18:13.157Z,7.10
2018-02-12T04:19:13.624Z,7.09
2018-02-12T04:20:14.090Z,7.09
2018-02-12T04:21:14.556Z,7.08
2018-02-12T04:22:15.022Z,7.09
2018-02-12T04:23:15.487Z,7.09
2018-02-12T04:24:15.953Z,7.09
2018-02-12T04:25:16.419Z,7.09
2018-02-12T04:26:16.935Z,7.07
2018-02-12T04:28:17.814Z,7.06
2018-02-12T04:29:18.282Z,7.05
2018-02-12T04:30:18.747Z,7.05
2018-02-12T04:31:19.270Z,7.02
2018-02-12T04:32:19.674Z,7.02
2018-02-12T04:33:20.145Z,7.04
2018-02-12T04:34:20.609Z,7.06
2018-02-12T04:35:21.076Z,7.07
2018-02-12T04:36:21.536Z,7.09
2018-02-12T04:37:22.005Z,7.08
2018-02-12T04:38:22.472Z,7.08
2018-02-12T04:39:22.946Z,7.11
2018-02-12T04:40:23.404Z,7.10
2018-02-12T04:41:23.869Z,7.10
2018-02-12T04:42:24.335Z,7.10
2018-02-12T04:43:24.798Z,7.09
2018-02-12T04:44:25.266Z,7.08
2018-02-12T04:45:25.736Z,7.08
2018-02-12T04:46:26.198Z,7.08
2018-02-12T04:47:26.664Z,7.08
2018-02-12T04:48:27.125Z,7.06
2018-02-12T04:49:27.592Z,7.06
2018-02-12T04:50:28.059Z,7.08
2018-02-12T04:52:28.990Z,7.06
2018-02-12T04:54:29.917Z,7.06
2018-02-12T04:55:30.386Z,7.05
2018-02-12T04:56:30.902Z,7.05
2018-02-12T04:57:31.318Z,7.07
2018-02-12T04:58:31.779Z,7.07
2018-02-12T04:59:32.249Z,7.04
2018-02-12T05:00:32.713Z,7.04
2018-02-12T05:01:33.178Z,7.02
2018-02-12T05:03:34.111Z,7.00
2018-02-12T05:04:34.572Z,6.99
2018-02-12T05:05:35.042Z,6.98
2018-02-12T05:06:47.647Z,6.97
2018-02-12T05:07:35.972Z,6.96
2018-02-12T05:08:36.440Z,6.96
2018-02-12T05:10:37.366Z,6.94
2018-02-12T05:11:37.885Z,6.94
2018-02-12T05:12:38.304Z,6.92
2018-02-12T05:13:38.765Z,6.92
2018-02-12T05:14:39.231Z,6.91
2018-02-12T05:15:39.695Z,6.92
2018-02-12T05:16:40.159Z,6.90
2018-02-12T05:17:40.627Z,6.90
2018-02-12T05:18:41.093Z,6.90
2018-02-12T05:19:41.556Z,6.88
2018-02-12T05:20:42.021Z,6.88
2018-02-12T05:21:42.490Z,6.88
2018-02-12T05:23:43.422Z,6.86
2018-02-12T05:24:43.885Z,6.87
2018-02-12T05:25:44.346Z,6.85
2018-02-12T05:26:56.654Z,6.86
2018-02-12T05:27:45.281Z,6.88
2018-02-12T05:28:45.748Z,6.86
2018-02-12T05:29:46.211Z,6.85
2018-02-12T05:30:46.677Z,6.84
2018-02-12T05:31:58.676Z,6.83
2018-02-12T05:32:47.604Z,6.83
2018-02-12T05:33:48.074Z,6.82
2018-02-12T05:34:48.539Z,6.81
2018-02-12T05:35:49.004Z,6.81
2018-02-12T05:36:49.522Z,6.84
2018-02-12T05:37:49.935Z,6.83
2018-02-12T05:38:50.395Z,6.84
2018-02-12T05:39:50.866Z,6.84
2018-02-12T05:40:51.331Z,6.85
2018-02-12T05:41:51.850Z,6.84
2018-02-12T05:42:52.262Z,6.82
2018-02-12T05:43:52.727Z,6.81
2018-02-12T05:44:53.193Z,6.80
2018-02-12T05:45:53.658Z,6.80
2018-02-12T05:46:54.177Z,6.78
2018-02-12T05:47:54.588Z,6.78
2018-02-12T05:48:55.051Z,6.80
2018-02-12T05:49:55.520Z,6.80
2018-02-12T05:50:55.983Z,6.80
2018-02-12T05:51:56.500Z,6.79
2018-02-12T05:52:56.915Z,6.78
2018-02-12T05:53:57.380Z,6.77
2018-02-12T05:54:57.846Z,6.76
2018-02-12T05:56:58.827Z,6.74
2018-02-12T05:57:59.240Z,6.71
2018-02-12T05:58:59.707Z,6.71
2018-02-12T06:00:00.369Z,6.71
2018-02-12T06:01:00.637Z,6.73
2018-02-12T06:02:01.153Z,6.72
2018-02-12T06:03:01.563Z,6.70
2018-02-12T06:04:02.033Z,6.70
2018-02-12T06:05:02.497Z,6.71
2018-02-12T06:06:02.958Z,6.72
2018-02-12T06:07:03.479Z,6.72
2018-02-12T06:08:03.895Z,6.72
2018-02-12T06:09:04.359Z,6.71
2018-02-12T06:10:04.824Z,6.69
2018-02-12T06:11:05.291Z,6.68
2018-02-12T06:12:05.804Z,6.68
2018-02-12T06:13:06.221Z,6.66
2018-02-12T06:14:06.686Z,6.63
2018-02-12T06:16:07.615Z,6.63
2018-02-12T06:18:08.579Z,6.62
2018-02-12T06:19:09.012Z,6.64
2018-02-12T06:20:09.475Z,6.65
2018-02-12T06:21:09.941Z,6.68
2018-02-12T06:22:10.405Z,6.67
2018-02-12T06:23:10.871Z,6.66
2018-02-12T06:24:11.344Z,6.64
2018-02-12T06:25:11.801Z,6.67
2018-02-12T06:26:12.266Z,6.67
2018-02-12T06:27:24.732Z,6.68
2018-02-12T06:28:13.199Z,6.68
2018-02-12T06:29:13.658Z,6.68
2018-02-12T06:30:14.127Z,6.67
2018-02-12T06:31:14.592Z,6.68
2018-02-12T06:32:15.107Z,6.68
2018-02-12T06:33:15.521Z,6.68
2018-02-12T06:34:15.984Z,6.68
2018-02-12T06:35:16.451Z,6.68
2018-02-12T06:36:16.917Z,6.67
2018-02-12T06:37:28.716Z,6.67
2018-02-12T06:38:17.850Z,6.67
2018-02-12T06:39:18.313Z,6.68
2018-02-12T06:40:18.787Z,6.69
2018-02-12T06:41:19.238Z,6.68
2018-02-12T06:44:20.638Z,6.67
2018-02-12T06:45:21.104Z,6.68
2018-02-12T06:46:21.572Z,6.68
2018-02-12T06:47:22.037Z,6.68
2018-02-12T06:48:22.499Z,6.67
2018-02-12T06:49:22.959Z,6.66
2018-02-12T06:50:23.430Z,6.68
2018-02-12T06:51:23.895Z,6.70
2018-02-12T06:52:24.409Z,6.70
2018-02-12T06:53:24.824Z,6.68
2018-02-12T06:54:25.285Z,6.68
2018-02-12T06:55:25.756Z,6.67
2018-02-12T06:56:26.257Z,6.66
2018-02-12T06:58:27.152Z,6.67
2018-02-12T06:59:27.616Z,6.67
2018-02-12T07:00:28.076Z,6.67
2018-02-12T07:01:28.546Z,6.66
2018-02-12T07:03:29.526Z,6.67
2018-02-12T07:04:29.936Z,6.66
2018-02-12T07:05:30.410Z,6.65
2018-02-12T07:06:30.872Z,6.66
2018-02-12T07:07:31.342Z,6.67
2018-02-12T07:08:31.801Z,6.66
2018-02-12T07:09:32.270Z,6.67
2018-02-12T07:10:32.735Z,6.66
2018-02-12T07:11:33.198Z,6.66
2018-02-12T07:12:33.662Z,6.66
2018-02-12T07:13:34.125Z,6.68
2018-02-12T07:14:34.593Z,6.67
2018-02-12T07:15:35.061Z,6.67
2018-02-12T07:16:35.523Z,6.67
2018-02-12T07:17:35.983Z,6.67
2018-02-12T07:18:36.503Z,6.65
2018-02-12T07:19:36.918Z,6.63
2018-02-12T07:20:37.384Z,6.65
2018-02-12T07:21:37.844Z,6.66
2018-02-12T07:23:38.831Z,6.63
2018-02-12T07:24:39.243Z,6.62
2018-02-12T07:26:40.173Z,6.63
2018-02-12T07:27:40.640Z,6.64
2018-02-12T07:29:41.568Z,6.64
2018-02-12T07:30:42.037Z,6.64
2018-02-12T07:31:42.500Z,6.62
2018-02-12T07:32:42.966Z,6.63
2018-02-12T07:33:43.480Z,6.63
2018-02-12T07:34:43.890Z,6.64
2018-02-12T07:35:44.359Z,6.63
2018-02-12T07:36:44.828Z,6.63
2018-02-12T07:37:45.289Z,6.64
2018-02-12T07:38:45.805Z,6.65
2018-02-12T07:39:46.220Z,6.64
2018-02-12T07:40:46.687Z,6.66
2018-02-12T07:41:47.150Z,6.65
2018-02-12T07:42:47.653Z,6.66
2018-02-12T07:43:48.081Z,6.64
2018-02-12T07:44:48.549Z,6.65
2018-02-12T07:45:49.010Z,6.64
2018-02-12T07:46:49.470Z,6.66
2018-02-12T07:47:49.939Z,6.67
2018-02-12T07:48:50.454Z,6.66
2018-02-12T07:50:51.335Z,6.64
2018-02-12T07:51:51.800Z,6.67
2018-02-12T07:52:52.259Z,6.65
2018-02-12T07:53:52.824Z,6.66
2018-02-12T07:54:53.196Z,6.67
2018-02-12T07:55:53.662Z,6.69
2018-02-12T07:56:54.124Z,6.69
2018-02-12T07:57:54.592Z,6.70
2018-02-12T07:58:55.102Z,6.72
2018-02-12T07:59:55.521Z,6.72
2018-02-12T08:00:56.326Z,6.71
2018-02-12T08:01:56.454Z,6.70
2018-02-12T08:02:56.912Z,6.71
2018-02-12T08:03:57.383Z,6.71
2018-02-12T08:04:57.845Z,6.71
2018-02-12T08:05:58.313Z,6.72
2018-02-12T08:06:58.778Z,6.75
2018-02-12T08:07:59.244Z,6.74
2018-02-12T08:08:59.706Z,6.72
2018-02-12T08:10:00.171Z,6.73
2018-02-12T08:11:00.637Z,6.74
2018-02-12T08:12:01.126Z,6.75
2018-02-12T08:13:01.566Z,6.76
2018-02-12T08:15:02.493Z,6.78
2018-02-12T08:16:03.011Z,6.75
2018-02-12T08:17:03.427Z,6.76
2018-02-12T08:18:03.892Z,6.77
2018-02-12T08:20:04.817Z,6.79
2018-02-12T08:21:05.286Z,6.81
2018-02-12T08:22:05.752Z,6.81
2018-02-12T08:23:06.221Z,6.83
2018-02-12T08:24:06.735Z,6.85
2018-02-12T08:25:07.152Z,6.85
2018-02-12T08:26:07.612Z,6.85
2018-02-12T08:27:08.075Z,6.88
2018-02-12T08:28:08.543Z,6.92
2018-02-12T08:29:09.012Z,6.92
2018-02-12T08:30:09.476Z,6.92
2018-02-12T08:31:09.944Z,6.93
2018-02-12T08:32:10.405Z,6.95
2018-02-12T08:33:10.870Z,6.96
2018-02-12T08:34:11.388Z,6.98
2018-02-12T08:35:11.801Z,6.99
2018-02-12T08:36:12.262Z,7.00
2018-02-12T08:37:12.733Z,7.02
2018-02-12T08:38:13.197Z,7.02
2018-02-12T08:39:13.711Z,7.04
2018-02-12T08:40:14.127Z,7.04
2018-02-12T08:41:14.591Z,7.04
2018-02-12T08:42:15.058Z,7.05
2018-02-12T08:43:15.523Z,7.06
2018-02-12T08:44:16.035Z,7.08
2018-02-12T08:45:16.454Z,7.10
2018-02-12T08:46:17.259Z,7.10
2018-02-12T08:47:17.384Z,7.09
2018-02-12T08:48:17.849Z,7.10
2018-02-12T08:49:18.364Z,7.10
2018-02-12T08:50:18.816Z,7.09
2018-02-12T08:51:19.247Z,7.12
2018-02-12T08:52:19.713Z,7.13
2018-02-12T08:53:20.175Z,7.16
2018-02-12T08:54:20.637Z,7.17
2018-02-12T08:55:21.106Z,7.17
2018-02-12T08:56:21.576Z,7.17
2018-02-12T08:57:22.036Z,7.19
2018-02-12T08:58:22.500Z,7.20
2018-02-12T08:59:22.968Z,7.21
2018-02-12T09:00:23.429Z,7.21
2018-02-12T09:01:23.898Z,7.22
2018-02-12T09:02:24.376Z,7.24
2018-02-12T09:03:24.837Z,7.27
2018-02-12T09:04:25.304Z,7.28
2018-02-12T09:05:25.769Z,7.29
2018-02-12T09:06:26.237Z,7.31
2018-02-12T09:07:26.700Z,7.29
2018-02-12T09:08:27.158Z,7.31
2018-02-12T09:09:27.672Z,7.31
2018-02-12T09:10:28.088Z,7.30
2018-02-12T09:11:28.554Z,7.31
2018-02-12T09:12:29.019Z,7.32
2018-02-12T09:13:29.485Z,7.34
2018-02-12T09:14:29.996Z,7.36
2018-02-12T09:15:30.416Z,7.37
2018-02-12T09:16:30.910Z,7.38
2018-02-12T09:17:31.346Z,7.39
2018-02-12T09:18:31.820Z,7.40
2018-02-12T09:19:32.280Z,7.42
2018-02-12T09:20:32.748Z,7.43
2018-02-12T09:21:33.204Z,7.45
2018-02-12T09:22:33.718Z,7.47
2018-02-12T09:23:34.140Z,7.48
2018-02-12T09:24:34.658Z,7.52
2018-02-12T09:25:35.067Z,7.51
2018-02-12T09:27:36.008Z,7.50
2018-02-12T09:28:36.469Z,7.53
2018-02-12T09:29:36.987Z,7.54
2018-02-12T09:30:37.395Z,7.53
2018-02-12T09:33:38.798Z,7.54
2018-02-12T09:34:39.263Z,7.55
2018-02-12T09:35:39.728Z,7.55
2018-02-12T09:37:40.654Z,7.56
2018-02-12T09:38:41.126Z,7.56
2018-02-12T09:39:41.645Z,7.54
2018-02-12T09:40:42.057Z,7.56
2018-02-12T09:41:42.519Z,7.57
2018-02-12T09:42:42.988Z,7.59
2018-02-12T09:43:43.456Z,7.58
2018-02-12T09:44:43.978Z,7.56
2018-02-12T09:45:44.386Z,7.57
2018-02-12T09:46:44.850Z,7.58
2018-02-12T09:47:45.317Z,7.57
2018-02-12T09:48:45.778Z,7.56
2018-02-12T09:49:46.298Z,7.54
2018-02-12T09:51:47.179Z,7.55
2018-02-12T09:52:47.646Z,7.56
2018-02-12T09:53:48.110Z,7.58
2018-02-12T09:54:48.573Z,7.60
2018-02-12T09:55:49.048Z,7.60
2018-02-12T09:56:49.510Z,7.63
2018-02-12T09:57:49.974Z,7.65
2018-02-12T09:58:50.440Z,7.65
2018-02-12T09:59:50.957Z,7.66
2018-02-12T10:00:51.372Z,7.69
2018-02-12T10:01:51.835Z,7.72
2018-02-12T10:02:52.303Z,7.73
2018-02-12T10:03:52.772Z,7.76
2018-02-12T10:04:53.285Z,7.78
2018-02-12T10:05:53.700Z,7.80
2018-02-12T10:06:54.172Z,7.85
2018-02-12T10:07:54.627Z,7.87
2018-02-12T10:08:55.100Z,7.89
2018-02-12T10:09:55.564Z,7.92
2018-02-12T10:10:56.032Z,7.95
2018-02-12T10:11:56.492Z,7.98
2018-02-12T10:12:56.965Z,8.00
2018-02-12T10:13:57.429Z,8.01
2018-02-12T10:15:09.935Z,8.03
2018-02-12T10:15:58.361Z,8.05
2018-02-12T10:16:58.828Z,8.08
2018-02-12T10:17:59.294Z,8.09
2018-02-12T10:18:59.756Z,8.13
2018-02-12T10:20:00.264Z,8.16
2018-02-12T10:21:00.693Z,8.17
2018-02-12T10:22:01.157Z,8.20
2018-02-12T10:23:03.973Z,8.22
2018-02-12T10:24:02.092Z,8.21
2018-02-12T10:25:02.557Z,8.20
2018-02-12T10:26:03.023Z,8.21
2018-02-12T10:27:03.490Z,8.21
2018-02-12T10:28:03.957Z,8.22
2018-02-12T10:29:04.422Z,8.24
2018-02-12T10:30:04.882Z,8.26
2018-02-12T10:31:05.697Z,8.26
2018-02-12T10:32:05.821Z,8.28
2018-02-12T10:34:06.753Z,8.31
2018-02-12T10:35:07.271Z,8.31
2018-02-12T10:36:07.686Z,8.31
2018-02-12T10:37:08.156Z,8.31
2018-02-12T10:38:08.620Z,8.33
2018-02-12T10:40:09.603Z,8.35
2018-02-12T10:41:10.017Z,8.37
2018-02-12T10:42:10.485Z,8.37
2018-02-12T10:43:10.952Z,8.39
2018-02-12T10:44:11.419Z,8.39
2018-02-12T10:45:11.885Z,8.39
2018-02-12T10:46:12.351Z,8.40
2018-02-12T10:47:12.819Z,8.39
2018-02-12T10:48:13.281Z,8.42
2018-02-12T10:49:13.752Z,8.42
2018-02-12T10:50:14.217Z,8.43
2018-02-12T10:51:14.684Z,8.46
2018-02-12T10:52:15.489Z,8.47
2018-02-12T10:53:15.618Z,8.48
2018-02-12T10:54:16.085Z,8.49
2018-02-12T10:56:17.018Z,8.51
2018-02-12T10:57:17.487Z,8.54
2018-02-12T10:58:17.950Z,8.55
2018-02-12T10:59:18.413Z,8.56
2018-02-12T11:00:18.885Z,8.56
2018-02-12T11:02:19.817Z,8.58
2018-02-12T11:03:20.280Z,8.59
2018-02-12T11:04:20.750Z,8.59
2018-02-12T11:05:21.218Z,8.61
2018-02-12T11:07:22.195Z,8.61
2018-02-12T11:08:22.624Z,8.62
2018-02-12T11:09:23.087Z,8.64
2018-02-12T11:10:23.552Z,8.66
2018-02-12T11:11:24.020Z,8.67
2018-02-12T11:12:24.513Z,8.68
2018-02-12T11:13:24.954Z,8.70
2018-02-12T11:14:25.419Z,8.71
2018-02-12T11:15:25.881Z,8.73
2018-02-12T11:16:26.354Z,8.75
2018-02-12T11:17:26.873Z,8.74
2018-02-12T11:18:27.288Z,8.76
2018-02-12T11:19:27.755Z,8.77
2018-02-12T11:20:28.219Z,8.79
2018-02-12T11:21:28.689Z,8.79
2018-02-12T11:22:29.206Z,8.78
2018-02-12T11:23:29.623Z,8.78
2018-02-12T11:24:30.091Z,8.77
2018-02-12T11:25:30.557Z,8.78
2018-02-12T11:26:31.022Z,8.79
2018-02-12T11:27:31.489Z,8.78
2018-02-12T11:28:31.959Z,8.79
2018-02-12T11:29:32.421Z,8.82
2018-02-12T11:30:32.891Z,8.81
2018-02-12T11:31:33.359Z,8.83
2018-02-12T11:32:33.827Z,8.85
2018-02-12T11:33:34.297Z,8.85
2018-02-12T11:35:35.228Z,8.88
2018-02-12T11:36:35.690Z,8.91
2018-02-12T11:37:47.996Z,8.93
2018-02-12T11:38:36.631Z,8.93
2018-02-12T11:39:37.092Z,8.94
2018-02-12T11:40:37.564Z,8.96
2018-02-12T11:41:38.031Z,8.98
2018-02-12T11:42:38.548Z,8.99
2018-02-12T11:43:38.965Z,8.99
2018-02-12T11:44:39.434Z,9.01
2018-02-12T11:45:39.901Z,9.01
2018-02-12T11:46:40.367Z,9.00
2018-02-12T11:47:40.837Z,9.02
2018-02-12T11:48:41.301Z,9.07
2018-02-12T11:49:41.770Z,9.07
2018-02-12T11:50:42.231Z,9.06
2018-02-12T11:51:42.704Z,9.07
2018-02-12T11:53:43.639Z,9.07
2018-02-12T11:54:44.105Z,9.06
2018-02-12T11:55:44.573Z,9.06
2018-02-12T11:56:45.041Z,9.06
2018-02-12T11:57:57.013Z,9.07
2018-02-12T11:58:45.971Z,9.07
2018-02-12T11:59:46.443Z,9.08
2018-02-12T12:00:46.910Z,9.11
2018-02-12T12:01:47.378Z,9.10
2018-02-12T12:02:47.896Z,9.10
2018-02-12T12:04:48.780Z,9.11
2018-02-12T12:05:49.244Z,9.12
2018-02-12T12:06:49.715Z,9.12
2018-02-12T12:08:02.023Z,9.11
2018-02-12T12:08:50.650Z,9.13
2018-02-12T12:09:51.114Z,9.13
2018-02-12T12:11:52.053Z,9.12
2018-02-12T12:13:52.992Z,9.12
2018-02-12T12:14:53.455Z,9.14
2018-02-12T12:15:53.936Z,9.15
2018-02-12T12:16:54.387Z,9.15
2018-02-12T12:17:54.858Z,9.16
2018-02-12T12:18:55.324Z,9.16
2018-02-12T12:19:55.793Z,9.16
2018-02-12T12:20:56.255Z,9.17
2018-02-12T12:21:56.727Z,9.18
2018-02-12T12:22:57.194Z,9.19
2018-02-12T12:23:57.712Z,9.19
2018-02-12T12:24:58.130Z,9.20
2018-02-12T12:25:58.597Z,9.20
2018-02-12T12:26:59.059Z,9.21
2018-02-12T12:27:59.533Z,9.20
2018-02-12T12:29:00.051Z,9.23
2018-02-12T12:31:00.929Z,9.23
2018-02-12T12:32:01.402Z,9.24
2018-02-12T12:33:01.871Z,9.24
2018-02-12T12:35:02.801Z,9.26
2018-02-12T12:36:03.268Z,9.27
2018-02-12T12:37:03.741Z,9.27
2018-02-12T12:38:04.208Z,9.28
2018-02-12T12:39:04.727Z,9.29
2018-02-12T12:40:05.138Z,9.29
2018-02-12T12:43:06.555Z,9.29
2018-02-12T12:44:07.063Z,9.32
2018-02-12T12:45:07.484Z,9.31
2018-02-12T12:46:07.951Z,9.33
2018-02-12T12:47:08.411Z,9.35
2018-02-12T12:48:08.886Z,9.35
2018-02-12T12:49:09.352Z,9.36
2018-02-12T12:50:09.819Z,9.35
2018-02-12T12:51:10.287Z,9.37
2018-02-12T12:52:10.756Z,9.38
2018-02-12T12:53:11.223Z,9.38
2018-02-12T12:54:11.688Z,9.40
2018-02-12T12:55:12.157Z,9.40
2018-02-12T12:56:12.966Z,9.40
2018-02-12T12:57:13.093Z,9.40
2018-02-12T12:58:13.563Z,9.44
2018-02-12T12:59:14.031Z,9.41
2018-02-12T13:00:14.497Z,9.41
2018-02-12T13:01:14.961Z,9.39
2018-02-12T13:02:15.433Z,9.41
2018-02-12T13:03:15.899Z,9.42
2018-02-12T13:04:16.419Z,9.42
2018-02-12T13:05:16.836Z,9.43
2018-02-12T13:06:17.353Z,9.43
2018-02-12T13:07:17.770Z,9.44
2018-02-12T13:08:18.240Z,9.44
2018-02-12T13:09:18.706Z,9.43
2018-02-12T13:10:19.170Z,9.45
2018-02-12T13:11:19.642Z,9.45
2018-02-12T13:13:20.577Z,9.49
2018-02-12T13:14:21.097Z,9.51
2018-02-12T13:15:21.513Z,9.52
2018-02-12T13:16:21.981Z,9.53
2018-02-12T13:17:22.449Z,9.52
2018-02-12T13:18:22.913Z,9.51
2018-02-12T13:19:23.434Z,9.50
2018-02-12T13:20:23.852Z,9.51
2018-02-12T13:21:24.321Z,9.52
2018-02-12T13:22:24.788Z,9.51
2018-02-12T13:23:25.256Z,9.52
2018-02-12T13:24:37.107Z,9.53
2018-02-12T13:25:26.189Z,9.54
2018-02-12T13:26:26.660Z,9.53
2018-02-12T13:27:27.128Z,9.55
2018-02-12T13:28:27.596Z,9.56
2018-02-12T13:29:28.115Z,9.57
2018-02-12T13:30:28.528Z,9.58
2018-02-12T13:32:29.466Z,9.58
2018-02-12T13:33:29.937Z,9.58
2018-02-12T13:34:30.451Z,9.60
2018-02-12T13:36:31.339Z,9.61
2018-02-12T13:37:31.808Z,9.63
2018-02-12T13:38:32.275Z,9.62
2018-02-12T13:39:32.743Z,9.64
2018-02-12T13:41:33.675Z,9.66
2018-02-12T13:42:34.147Z,9.66
2018-02-12T13:43:34.615Z,9.68
2018-02-12T13:45:35.602Z,9.67
2018-02-12T13:46:36.019Z,9.68
2018-02-12T13:47:36.488Z,9.69
2018-02-12T13:48:36.952Z,9.71
2018-02-12T13:49:37.424Z,9.69
2018-02-12T13:50:37.943Z,9.70
2018-02-12T13:51:38.359Z,9.71
2018-02-12T13:52:38.826Z,9.71
2018-02-12T13:53:39.300Z,9.71
2018-02-12T13:54:39.765Z,9.70
2018-02-12T13:55:40.284Z,9.70
2018-02-12T13:56:40.702Z,9.67
2018-02-12T13:57:41.171Z,9.68
2018-02-12T13:58:41.638Z,9.69
2018-02-12T13:59:42.105Z,9.68
2018-02-12T14:01:43.045Z,9.67
2018-02-12T14:02:43.511Z,9.66
2018-02-12T14:03:43.978Z,9.68
2018-02-12T14:04:44.447Z,9.70
2018-02-12T14:05:44.914Z,9.72
2018-02-12T14:06:45.383Z,9.73
2018-02-12T14:07:45.849Z,9.73
2018-02-12T14:08:46.319Z,9.74
2018-02-12T14:09:46.787Z,9.75
2018-02-12T14:10:47.306Z,9.74
2018-02-12T14:11:47.724Z,9.76
2018-02-12T14:12:48.191Z,9.76
2018-02-12T14:13:48.660Z,9.77
2018-02-12T14:16:50.064Z,9.76
2018-02-12T14:17:50.533Z,9.78
2018-02-12T14:18:50.998Z,9.75
2018-02-12T14:19:51.469Z,9.73
2018-02-12T14:20:51.937Z,9.72
2018-02-12T14:21:52.406Z,9.73
2018-02-12T14:23:53.338Z,9.72
2018-02-12T14:24:53.809Z,9.71
2018-02-12T14:25:54.325Z,9.70
2018-02-12T14:26:54.747Z,9.68
2018-02-12T14:27:55.214Z,9.67
2018-02-12T14:28:55.683Z,9.69
2018-02-12T14:29:56.152Z,9.66
2018-02-12T14:30:56.671Z,9.64
2018-02-12T14:31:57.086Z,9.67
2018-02-12T14:32:57.556Z,9.67
2018-02-12T14:33:58.024Z,9.68
2018-02-12T14:34:58.492Z,9.68
2018-02-12T14:35:59.011Z,9.67
2018-02-12T14:36:59.428Z,9.68
2018-02-12T14:37:59.897Z,9.66
2018-02-12T14:39:00.363Z,9.64
2018-02-12T14:40:00.834Z,9.63